sensor_id;sensor_type;location;lat;lon;timestamp;P1;durP1;ratioP1;P2;durP2;ratioP2
13975;SDS011;7062;49.792;9.946;2024-01-10T00:02:03;20.27;;;13.10;;
13975;SDS011;7062;49.792;9.946;2024-01-10T00:04:29;23.50;;;13.30;;
13975;SDS011;7062;49.792;9.946;2024-01-10T00:06:54;20.03;;;13.00;;
13975;SDS011;7062;49.792;9.946;2024-01-10T00:09:20;19.83;;;13.20;;
13975;SDS011;7062;49.792;9.946;2024-01-10T00:11:46;21.43;;;14.57;;
13975;SDS011;7062;49.792;9.946;2024-01-10T00:14:11;19.07;;;13.30;;
13975;SDS011;7062;49.792;9.946;2024-01-10T00:16:37;22.70;;;13.00;;
13975;SDS011;7062;49.792;9.946;2024-01-10T00:19:03;19.53;;;12.73;;
13975;SDS011;7062;49.792;9.946;2024-01-10T00:21:29;20.47;;;13.53;;
13975;SDS011;7062;49.792;9.946;2024-01-10T00:23:58;22.63;;;13.20;;
13975;SDS011;7062;49.792;9.946;2024-01-10T00:26:23;23.25;;;13.52;;
13975;SDS011;7062;49.792;9.946;2024-01-10T00:28:51;20.45;;;13.48;;
13975;SDS011;7062;49.792;9.946;2024-01-10T00:31:17;20.23;;;12.93;;
13975;SDS011;7062;49.792;9.946;2024-01-10T00:33:43;24.20;;;14.33;;
13975;SDS011;7062;49.792;9.946;2024-01-10T00:36:08;20.40;;;13.03;;
13975;SDS011;7062;49.792;9.946;2024-01-10T00:38:34;22.07;;;13.90;;
13975;SDS011;7062;49.792;9.946;2024-01-10T00:41:01;23.20;;;13.30;;
13975;SDS011;7062;49.792;9.946;2024-01-10T00:43:27;18.92;;;13.30;;
13975;SDS011;7062;49.792;9.946;2024-01-10T00:45:53;18.37;;;12.57;;
13975;SDS011;7062;49.792;9.946;2024-01-10T00:48:19;19.47;;;13.60;;
13975;SDS011;7062;49.792;9.946;2024-01-10T00:50:45;19.40;;;12.53;;
13975;SDS011;7062;49.792;9.946;2024-01-10T00:53:10;21.10;;;13.83;;
13975;SDS011;7062;49.792;9.946;2024-01-10T00:55:36;22.57;;;13.30;;
13975;SDS011;7062;49.792;9.946;2024-01-10T00:58:02;19.13;;;12.57;;
13975;SDS011;7062;49.792;9.946;2024-01-10T01:00:27;22.80;;;13.33;;
13975;SDS011;7062;49.792;9.946;2024-01-10T01:02:53;19.60;;;12.00;;
13975;SDS011;7062;49.792;9.946;2024-01-10T01:05:19;21.57;;;13.77;;
13975;SDS011;7062;49.792;9.946;2024-01-10T01:07:44;20.83;;;12.70;;
13975;SDS011;7062;49.792;9.946;2024-01-10T01:10:10;22.43;;;12.50;;
13975;SDS011;7062;49.792;9.946;2024-01-10T01:12:36;20.43;;;12.63;;
13975;SDS011;7062;49.792;9.946;2024-01-10T01:15:02;22.40;;;13.32;;
13975;SDS011;7062;49.792;9.946;2024-01-10T01:17:28;21.38;;;13.55;;
13975;SDS011;7062;49.792;9.946;2024-01-10T01:19:54;19.53;;;12.60;;
13975;SDS011;7062;49.792;9.946;2024-01-10T01:22:19;19.57;;;12.67;;
13975;SDS011;7062;49.792;9.946;2024-01-10T01:24:45;21.83;;;13.70;;
13975;SDS011;7062;49.792;9.946;2024-01-10T01:27:11;22.98;;;12.43;;
13975;SDS011;7062;49.792;9.946;2024-01-10T01:29:37;18.60;;;12.03;;
13975;SDS011;7062;49.792;9.946;2024-01-10T01:32:02;17.70;;;12.43;;
13975;SDS011;7062;49.792;9.946;2024-01-10T01:34:28;22.97;;;14.13;;
13975;SDS011;7062;49.792;9.946;2024-01-10T01:36:54;19.47;;;11.57;;
13975;SDS011;7062;49.792;9.946;2024-01-10T01:39:19;21.40;;;12.60;;
13975;SDS011;7062;49.792;9.946;2024-01-10T01:41:45;21.40;;;12.73;;
13975;SDS011;7062;49.792;9.946;2024-01-10T01:44:11;20.60;;;12.67;;
13975;SDS011;7062;49.792;9.946;2024-01-10T01:46:36;19.33;;;11.73;;
13975;SDS011;7062;49.792;9.946;2024-01-10T01:49:05;18.27;;;12.52;;
13975;SDS011;7062;49.792;9.946;2024-01-10T01:51:32;16.70;;;11.63;;
13975;SDS011;7062;49.792;9.946;2024-01-10T01:53:59;18.83;;;11.93;;
13975;SDS011;7062;49.792;9.946;2024-01-10T01:56:25;16.63;;;11.93;;
13975;SDS011;7062;49.792;9.946;2024-01-10T01:58:51;18.13;;;11.60;;
13975;SDS011;7062;49.792;9.946;2024-01-10T02:01:18;17.15;;;12.05;;
13975;SDS011;7062;49.792;9.946;2024-01-10T02:03:47;18.70;;;11.85;;
13975;SDS011;7062;49.792;9.946;2024-01-10T02:06:13;18.05;;;12.05;;
13975;SDS011;7062;49.792;9.946;2024-01-10T02:08:39;15.83;;;10.40;;
13975;SDS011;7062;49.792;9.946;2024-01-10T02:11:04;20.30;;;12.93;;
13975;SDS011;7062;49.792;9.946;2024-01-10T02:13:30;19.13;;;11.20;;
13975;SDS011;7062;49.792;9.946;2024-01-10T02:16:00;19.70;;;11.63;;
13975;SDS011;7062;49.792;9.946;2024-01-10T02:18:25;17.13;;;11.50;;
13975;SDS011;7062;49.792;9.946;2024-01-10T02:20:51;19.30;;;11.40;;
13975;SDS011;7062;49.792;9.946;2024-01-10T02:23:17;16.97;;;10.23;;
13975;SDS011;7062;49.792;9.946;2024-01-10T02:25:43;18.08;;;11.02;;
13975;SDS011;7062;49.792;9.946;2024-01-10T02:28:09;19.35;;;11.93;;
13975;SDS011;7062;49.792;9.946;2024-01-10T02:30:35;18.20;;;11.23;;
13975;SDS011;7062;49.792;9.946;2024-01-10T02:33:02;19.73;;;11.27;;
13975;SDS011;7062;49.792;9.946;2024-01-10T02:35:28;21.00;;;12.43;;
13975;SDS011;7062;49.792;9.946;2024-01-10T02:37:54;16.95;;;11.52;;
13975;SDS011;7062;49.792;9.946;2024-01-10T02:40:20;18.60;;;11.03;;
13975;SDS011;7062;49.792;9.946;2024-01-10T02:42:46;18.23;;;11.00;;
13975;SDS011;7062;49.792;9.946;2024-01-10T02:45:12;18.87;;;12.30;;
13975;SDS011;7062;49.792;9.946;2024-01-10T02:47:37;17.63;;;10.87;;
13975;SDS011;7062;49.792;9.946;2024-01-10T02:50:04;18.53;;;11.33;;
13975;SDS011;7062;49.792;9.946;2024-01-10T02:52:30;18.05;;;11.05;;
13975;SDS011;7062;49.792;9.946;2024-01-10T02:54:56;17.53;;;11.87;;
13975;SDS011;7062;49.792;9.946;2024-01-10T02:57:22;19.00;;;11.10;;
13975;SDS011;7062;49.792;9.946;2024-01-10T02:59:47;18.43;;;11.40;;
13975;SDS011;7062;49.792;9.946;2024-01-10T03:02:13;16.23;;;9.93;;
13975;SDS011;7062;49.792;9.946;2024-01-10T03:04:39;18.37;;;11.27;;
13975;SDS011;7062;49.792;9.946;2024-01-10T03:07:05;14.70;;;10.20;;
13975;SDS011;7062;49.792;9.946;2024-01-10T03:09:30;16.07;;;10.20;;
13975;SDS011;7062;49.792;9.946;2024-01-10T03:11:56;18.67;;;10.80;;
13975;SDS011;7062;49.792;9.946;2024-01-10T03:14:22;18.10;;;10.67;;
13975;SDS011;7062;49.792;9.946;2024-01-10T03:16:47;18.60;;;11.30;;
13975;SDS011;7062;49.792;9.946;2024-01-10T03:19:13;18.20;;;12.67;;
13975;SDS011;7062;49.792;9.946;2024-01-10T03:21:39;15.53;;;11.03;;
13975;SDS011;7062;49.792;9.946;2024-01-10T03:24:05;16.60;;;9.87;;
13975;SDS011;7062;49.792;9.946;2024-01-10T03:26:30;17.40;;;10.13;;
13975;SDS011;7062;49.792;9.946;2024-01-10T03:28:56;15.60;;;10.27;;
13975;SDS011;7062;49.792;9.946;2024-01-10T03:31:22;16.47;;;10.83;;
13975;SDS011;7062;49.792;9.946;2024-01-10T03:33:48;15.67;;;9.83;;
13975;SDS011;7062;49.792;9.946;2024-01-10T03:36:17;15.50;;;9.43;;
13975;SDS011;7062;49.792;9.946;2024-01-10T03:38:43;16.33;;;10.10;;
13975;SDS011;7062;49.792;9.946;2024-01-10T03:41:28;15.98;;;10.15;;
13975;SDS011;7062;49.792;9.946;2024-01-10T03:43:53;15.80;;;10.00;;
13975;SDS011;7062;49.792;9.946;2024-01-10T03:46:19;18.10;;;11.87;;
13975;SDS011;7062;49.792;9.946;2024-01-10T03:48:45;16.43;;;10.60;;
13975;SDS011;7062;49.792;9.946;2024-01-10T03:51:14;23.65;;;13.25;;
13975;SDS011;7062;49.792;9.946;2024-01-10T03:53:41;16.85;;;10.52;;
13975;SDS011;7062;49.792;9.946;2024-01-10T03:56:07;18.77;;;10.40;;
13975;SDS011;7062;49.792;9.946;2024-01-10T03:58:32;17.25;;;12.18;;
13975;SDS011;7062;49.792;9.946;2024-01-10T04:00:58;15.43;;;9.63;;
13975;SDS011;7062;49.792;9.946;2024-01-10T04:03:24;15.50;;;9.83;;
13975;SDS011;7062;49.792;9.946;2024-01-10T04:05:50;15.77;;;10.57;;
13975;SDS011;7062;49.792;9.946;2024-01-10T04:08:15;16.37;;;11.67;;
13975;SDS011;7062;49.792;9.946;2024-01-10T04:10:41;15.43;;;9.83;;
13975;SDS011;7062;49.792;9.946;2024-01-10T04:13:06;16.17;;;9.53;;
13975;SDS011;7062;49.792;9.946;2024-01-10T04:15:32;16.97;;;10.40;;
13975;SDS011;7062;49.792;9.946;2024-01-10T04:17:59;17.60;;;10.10;;
13975;SDS011;7062;49.792;9.946;2024-01-10T04:20:25;17.13;;;10.17;;
13975;SDS011;7062;49.792;9.946;2024-01-10T04:22:50;16.50;;;10.93;;
13975;SDS011;7062;49.792;9.946;2024-01-10T04:25:16;21.03;;;10.50;;
13975;SDS011;7062;49.792;9.946;2024-01-10T04:27:42;17.40;;;9.70;;
13975;SDS011;7062;49.792;9.946;2024-01-10T04:30:07;17.70;;;10.83;;
13975;SDS011;7062;49.792;9.946;2024-01-10T04:32:33;15.77;;;10.15;;
13975;SDS011;7062;49.792;9.946;2024-01-10T04:35:00;15.18;;;10.02;;
13975;SDS011;7062;49.792;9.946;2024-01-10T04:37:25;16.93;;;9.97;;
13975;SDS011;7062;49.792;9.946;2024-01-10T04:39:51;13.83;;;9.63;;
13975;SDS011;7062;49.792;9.946;2024-01-10T04:42:17;17.53;;;9.90;;
13975;SDS011;7062;49.792;9.946;2024-01-10T04:44:43;17.07;;;9.60;;
13975;SDS011;7062;49.792;9.946;2024-01-10T04:47:08;19.67;;;10.67;;
13975;SDS011;7062;49.792;9.946;2024-01-10T04:49:34;13.57;;;9.60;;
13975;SDS011;7062;49.792;9.946;2024-01-10T04:52:00;16.80;;;10.03;;
13975;SDS011;7062;49.792;9.946;2024-01-10T04:54:26;18.02;;;10.55;;
13975;SDS011;7062;49.792;9.946;2024-01-10T04:56:52;17.83;;;9.83;;
13975;SDS011;7062;49.792;9.946;2024-01-10T04:59:17;14.10;;;9.37;;
13975;SDS011;7062;49.792;9.946;2024-01-10T05:01:43;15.10;;;10.00;;
13975;SDS011;7062;49.792;9.946;2024-01-10T05:04:09;15.37;;;9.37;;
13975;SDS011;7062;49.792;9.946;2024-01-10T05:06:34;15.13;;;9.00;;
13975;SDS011;7062;49.792;9.946;2024-01-10T05:09:00;16.10;;;10.47;;
13975;SDS011;7062;49.792;9.946;2024-01-10T05:11:26;12.93;;;9.33;;
13975;SDS011;7062;49.792;9.946;2024-01-10T05:13:52;18.40;;;9.80;;
13975;SDS011;7062;49.792;9.946;2024-01-10T05:16:17;17.23;;;10.63;;
13975;SDS011;7062;49.792;9.946;2024-01-10T05:18:44;14.85;;;9.85;;
13975;SDS011;7062;49.792;9.946;2024-01-10T05:21:09;15.57;;;10.17;;
13975;SDS011;7062;49.792;9.946;2024-01-10T05:23:35;15.33;;;10.50;;
13975;SDS011;7062;49.792;9.946;2024-01-10T05:26:03;17.00;;;10.07;;
13975;SDS011;7062;49.792;9.946;2024-01-10T05:28:29;18.33;;;10.77;;
13975;SDS011;7062;49.792;9.946;2024-01-10T05:30:55;17.47;;;11.00;;
13975;SDS011;7062;49.792;9.946;2024-01-10T05:33:20;15.20;;;8.87;;
13975;SDS011;7062;49.792;9.946;2024-01-10T05:35:46;16.30;;;9.70;;
13975;SDS011;7062;49.792;9.946;2024-01-10T05:38:12;12.47;;;9.63;;
13975;SDS011;7062;49.792;9.946;2024-01-10T05:40:37;15.33;;;9.60;;
13975;SDS011;7062;49.792;9.946;2024-01-10T05:43:03;14.87;;;9.73;;
13975;SDS011;7062;49.792;9.946;2024-01-10T05:45:29;16.73;;;10.40;;
13975;SDS011;7062;49.792;9.946;2024-01-10T05:47:55;16.60;;;9.80;;
13975;SDS011;7062;49.792;9.946;2024-01-10T05:50:20;14.13;;;9.20;;
13975;SDS011;7062;49.792;9.946;2024-01-10T05:52:49;16.60;;;9.93;;
13975;SDS011;7062;49.792;9.946;2024-01-10T05:55:15;17.33;;;10.20;;
13975;SDS011;7062;49.792;9.946;2024-01-10T05:57:41;16.07;;;10.07;;
13975;SDS011;7062;49.792;9.946;2024-01-10T06:00:07;15.18;;;9.75;;
13975;SDS011;7062;49.792;9.946;2024-01-10T06:02:36;15.63;;;9.35;;
13975;SDS011;7062;49.792;9.946;2024-01-10T06:05:06;14.45;;;9.57;;
13975;SDS011;7062;49.792;9.946;2024-01-10T06:07:35;15.48;;;10.23;;
13975;SDS011;7062;49.792;9.946;2024-01-10T06:10:01;18.48;;;10.48;;
13975;SDS011;7062;49.792;9.946;2024-01-10T06:12:27;16.93;;;10.70;;
13975;SDS011;7062;49.792;9.946;2024-01-10T06:14:53;16.80;;;10.03;;
13975;SDS011;7062;49.792;9.946;2024-01-10T06:17:19;18.77;;;11.70;;
13975;SDS011;7062;49.792;9.946;2024-01-10T06:19:45;16.97;;;10.90;;
13975;SDS011;7062;49.792;9.946;2024-01-10T06:22:10;15.20;;;10.60;;
13975;SDS011;7062;49.792;9.946;2024-01-10T06:24:36;15.00;;;9.33;;
13975;SDS011;7062;49.792;9.946;2024-01-10T06:27:03;15.32;;;10.15;;
13975;SDS011;7062;49.792;9.946;2024-01-10T06:29:29;15.45;;;9.65;;
13975;SDS011;7062;49.792;9.946;2024-01-10T06:31:55;20.23;;;11.10;;
13975;SDS011;7062;49.792;9.946;2024-01-10T06:34:22;16.85;;;10.13;;
13975;SDS011;7062;49.792;9.946;2024-01-10T06:36:48;17.07;;;10.23;;
13975;SDS011;7062;49.792;9.946;2024-01-10T06:39:17;19.02;;;11.18;;
13975;SDS011;7062;49.792;9.946;2024-01-10T06:41:45;13.32;;;9.57;;
13975;SDS011;7062;49.792;9.946;2024-01-10T06:44:12;16.58;;;9.88;;
13975;SDS011;7062;49.792;9.946;2024-01-10T06:46:38;13.47;;;9.63;;
13975;SDS011;7062;49.792;9.946;2024-01-10T06:49:04;16.97;;;10.60;;
13975;SDS011;7062;49.792;9.946;2024-01-10T06:51:29;15.30;;;9.97;;
13975;SDS011;7062;49.792;9.946;2024-01-10T06:53:55;16.30;;;10.40;;
13975;SDS011;7062;49.792;9.946;2024-01-10T06:56:27;17.15;;;10.70;;
13975;SDS011;7062;49.792;9.946;2024-01-10T06:58:53;18.53;;;11.10;;
13975;SDS011;7062;49.792;9.946;2024-01-10T07:01:19;18.42;;;10.82;;
13975;SDS011;7062;49.792;9.946;2024-01-10T07:03:46;13.88;;;10.63;;
13975;SDS011;7062;49.792;9.946;2024-01-10T07:06:12;16.87;;;10.80;;
13975;SDS011;7062;49.792;9.946;2024-01-10T07:08:40;16.00;;;9.98;;
13975;SDS011;7062;49.792;9.946;2024-01-10T07:11:07;16.63;;;10.85;;
13975;SDS011;7062;49.792;9.946;2024-01-10T07:13:33;16.80;;;10.85;;
13975;SDS011;7062;49.792;9.946;2024-01-10T07:15:59;15.73;;;11.27;;
13975;SDS011;7062;49.792;9.946;2024-01-10T07:18:27;19.63;;;11.05;;
13975;SDS011;7062;49.792;9.946;2024-01-10T07:20:53;16.58;;;11.25;;
13975;SDS011;7062;49.792;9.946;2024-01-10T07:23:19;20.23;;;11.00;;
13975;SDS011;7062;49.792;9.946;2024-01-10T07:25:44;17.33;;;11.13;;
13975;SDS011;7062;49.792;9.946;2024-01-10T07:28:10;21.03;;;12.17;;
13975;SDS011;7062;49.792;9.946;2024-01-10T07:30:36;16.17;;;9.97;;
13975;SDS011;7062;49.792;9.946;2024-01-10T07:33:01;15.33;;;10.87;;
13975;SDS011;7062;49.792;9.946;2024-01-10T07:35:27;20.80;;;11.70;;
13975;SDS011;7062;49.792;9.946;2024-01-10T07:37:54;19.70;;;11.27;;
13975;SDS011;7062;49.792;9.946;2024-01-10T07:40:20;17.03;;;11.60;;
13975;SDS011;7062;49.792;9.946;2024-01-10T07:42:45;17.17;;;11.00;;
13975;SDS011;7062;49.792;9.946;2024-01-10T07:45:11;16.90;;;10.60;;
13975;SDS011;7062;49.792;9.946;2024-01-10T07:47:37;21.13;;;10.97;;
13975;SDS011;7062;49.792;9.946;2024-01-10T07:50:09;17.77;;;10.93;;
13975;SDS011;7062;49.792;9.946;2024-01-10T07:52:39;17.90;;;11.20;;
13975;SDS011;7062;49.792;9.946;2024-01-10T07:55:05;18.00;;;11.18;;
13975;SDS011;7062;49.792;9.946;2024-01-10T07:57:32;17.35;;;11.38;;
13975;SDS011;7062;49.792;9.946;2024-01-10T07:59:59;19.23;;;11.13;;
13975;SDS011;7062;49.792;9.946;2024-01-10T08:02:24;18.77;;;11.57;;
13975;SDS011;7062;49.792;9.946;2024-01-10T08:04:50;19.47;;;11.57;;
13975;SDS011;7062;49.792;9.946;2024-01-10T08:07:16;21.50;;;12.32;;
13975;SDS011;7062;49.792;9.946;2024-01-10T08:09:42;20.50;;;11.63;;
13975;SDS011;7062;49.792;9.946;2024-01-10T08:12:08;18.27;;;12.13;;
13975;SDS011;7062;49.792;9.946;2024-01-10T08:14:33;18.73;;;11.43;;
13975;SDS011;7062;49.792;9.946;2024-01-10T08:16:59;18.15;;;12.18;;
13975;SDS011;7062;49.792;9.946;2024-01-10T08:19:25;21.73;;;12.27;;
13975;SDS011;7062;49.792;9.946;2024-01-10T08:21:52;18.17;;;11.73;;
13975;SDS011;7062;49.792;9.946;2024-01-10T08:24:19;20.83;;;11.65;;
13975;SDS011;7062;49.792;9.946;2024-01-10T08:26:46;17.33;;;10.63;;
13975;SDS011;7062;49.792;9.946;2024-01-10T08:29:12;21.27;;;11.77;;
13975;SDS011;7062;49.792;9.946;2024-01-10T08:31:37;19.60;;;11.27;;
13975;SDS011;7062;49.792;9.946;2024-01-10T08:34:04;17.70;;;10.98;;
13975;SDS011;7062;49.792;9.946;2024-01-10T08:36:29;19.40;;;12.60;;
13975;SDS011;7062;49.792;9.946;2024-01-10T08:38:55;20.47;;;12.10;;
13975;SDS011;7062;49.792;9.946;2024-01-10T08:41:20;21.67;;;11.97;;
13975;SDS011;7062;49.792;9.946;2024-01-10T08:43:46;18.80;;;12.47;;
13975;SDS011;7062;49.792;9.946;2024-01-10T08:46:12;16.97;;;11.47;;
13975;SDS011;7062;49.792;9.946;2024-01-10T08:48:38;20.23;;;11.17;;
13975;SDS011;7062;49.792;9.946;2024-01-10T08:51:03;17.63;;;11.90;;
13975;SDS011;7062;49.792;9.946;2024-01-10T08:53:29;19.10;;;12.18;;
13975;SDS011;7062;49.792;9.946;2024-01-10T08:55:55;26.87;;;14.27;;
13975;SDS011;7062;49.792;9.946;2024-01-10T08:58:21;18.60;;;12.97;;
13975;SDS011;7062;49.792;9.946;2024-01-10T09:00:46;21.83;;;13.13;;
13975;SDS011;7062;49.792;9.946;2024-01-10T09:03:12;23.67;;;13.70;;
13975;SDS011;7062;49.792;9.946;2024-01-10T09:05:38;23.23;;;13.37;;
13975;SDS011;7062;49.792;9.946;2024-01-10T09:08:04;20.60;;;13.53;;
13975;SDS011;7062;49.792;9.946;2024-01-10T09:10:29;22.27;;;13.43;;
13975;SDS011;7062;49.792;9.946;2024-01-10T09:12:55;21.93;;;13.13;;
13975;SDS011;7062;49.792;9.946;2024-01-10T09:15:23;22.60;;;13.20;;
13975;SDS011;7062;49.792;9.946;2024-01-10T09:17:49;20.63;;;13.23;;
13975;SDS011;7062;49.792;9.946;2024-01-10T09:20:17;22.42;;;13.27;;
13975;SDS011;7062;49.792;9.946;2024-01-10T09:22:42;21.97;;;12.50;;
13975;SDS011;7062;49.792;9.946;2024-01-10T09:25:09;19.15;;;13.25;;
13975;SDS011;7062;49.792;9.946;2024-01-10T09:27:38;19.35;;;12.77;;
13975;SDS011;7062;49.792;9.946;2024-01-10T09:30:06;17.40;;;11.20;;
13975;SDS011;7062;49.792;9.946;2024-01-10T09:32:35;17.70;;;11.25;;
13975;SDS011;7062;49.792;9.946;2024-01-10T09:35:01;18.83;;;11.30;;
13975;SDS011;7062;49.792;9.946;2024-01-10T09:37:27;16.20;;;10.88;;
13975;SDS011;7062;49.792;9.946;2024-01-10T09:39:53;15.37;;;10.90;;
13975;SDS011;7062;49.792;9.946;2024-01-10T09:42:19;13.77;;;10.07;;
13975;SDS011;7062;49.792;9.946;2024-01-10T09:44:50;14.00;;;10.00;;
13975;SDS011;7062;49.792;9.946;2024-01-10T09:47:16;14.85;;;9.98;;
13975;SDS011;7062;49.792;9.946;2024-01-10T09:49:44;14.35;;;9.18;;
13975;SDS011;7062;49.792;9.946;2024-01-10T09:52:11;15.90;;;10.77;;
13975;SDS011;7062;49.792;9.946;2024-01-10T09:54:55;15.15;;;9.75;;
13975;SDS011;7062;49.792;9.946;2024-01-10T09:57:24;11.38;;;8.77;;
13975;SDS011;7062;49.792;9.946;2024-01-10T09:59:53;13.73;;;9.30;;
13975;SDS011;7062;49.792;9.946;2024-01-10T10:02:20;12.75;;;9.35;;
13975;SDS011;7062;49.792;9.946;2024-01-10T10:04:53;14.60;;;9.88;;
13975;SDS011;7062;49.792;9.946;2024-01-10T10:07:20;12.45;;;8.10;;
13975;SDS011;7062;49.792;9.946;2024-01-10T10:09:46;17.92;;;9.63;;
13975;SDS011;7062;49.792;9.946;2024-01-10T10:12:11;13.57;;;9.00;;
13975;SDS011;7062;49.792;9.946;2024-01-10T10:14:37;14.20;;;8.43;;
13975;SDS011;7062;49.792;9.946;2024-01-10T10:17:15;14.07;;;9.33;;
13975;SDS011;7062;49.792;9.946;2024-01-10T10:19:42;14.15;;;9.88;;
13975;SDS011;7062;49.792;9.946;2024-01-10T10:22:09;12.23;;;9.13;;
13975;SDS011;7062;49.792;9.946;2024-01-10T10:24:35;15.57;;;10.45;;
13975;SDS011;7062;49.792;9.946;2024-01-10T10:27:01;12.10;;;8.80;;
13975;SDS011;7062;49.792;9.946;2024-01-10T10:29:32;12.68;;;8.52;;
13975;SDS011;7062;49.792;9.946;2024-01-10T10:31:58;11.77;;;8.80;;
13975;SDS011;7062;49.792;9.946;2024-01-10T10:34:30;16.27;;;9.85;;
13975;SDS011;7062;49.792;9.946;2024-01-10T10:36:57;12.80;;;8.88;;
13975;SDS011;7062;49.792;9.946;2024-01-10T10:39:23;18.70;;;11.05;;
13975;SDS011;7062;49.792;9.946;2024-01-10T10:41:50;14.68;;;10.55;;
13975;SDS011;7062;49.792;9.946;2024-01-10T10:44:18;14.27;;;10.93;;
13975;SDS011;7062;49.792;9.946;2024-01-10T10:46:52;13.53;;;10.43;;
13975;SDS011;7062;49.792;9.946;2024-01-10T10:49:23;13.67;;;9.83;;
13975;SDS011;7062;49.792;9.946;2024-01-10T10:51:55;13.93;;;10.90;;
13975;SDS011;7062;49.792;9.946;2024-01-10T10:54:25;13.30;;;10.20;;
13975;SDS011;7062;49.792;9.946;2024-01-10T10:56:54;13.47;;;9.67;;
13975;SDS011;7062;49.792;9.946;2024-01-10T10:59:24;14.50;;;10.60;;
13975;SDS011;7062;49.792;9.946;2024-01-10T11:01:51;15.10;;;10.67;;
13975;SDS011;7062;49.792;9.946;2024-01-10T11:04:19;12.93;;;11.60;;
13975;SDS011;7062;49.792;9.946;2024-01-10T11:06:46;14.27;;;10.90;;
13975;SDS011;7062;49.792;9.946;2024-01-10T11:09:11;12.97;;;9.70;;
13975;SDS011;7062;49.792;9.946;2024-01-10T11:12:02;16.50;;;11.13;;
13975;SDS011;7062;49.792;9.946;2024-01-10T11:21:10;15.13;;;11.40;;
13975;SDS011;7062;49.792;9.946;2024-01-10T11:24:00;15.67;;;10.90;;
13975;SDS011;7062;49.792;9.946;2024-01-10T11:26:26;13.03;;;11.17;;
13975;SDS011;7062;49.792;9.946;2024-01-10T11:28:52;14.87;;;11.73;;
13975;SDS011;7062;49.792;9.946;2024-01-10T11:31:28;14.23;;;10.93;;
13975;SDS011;7062;49.792;9.946;2024-01-10T11:33:55;15.93;;;10.53;;
13975;SDS011;7062;49.792;9.946;2024-01-10T11:36:21;13.43;;;10.67;;
13975;SDS011;7062;49.792;9.946;2024-01-10T11:46:46;17.67;;;10.40;;
13975;SDS011;7062;49.792;9.946;2024-01-10T11:49:18;15.25;;;11.00;;
13975;SDS011;7062;49.792;9.946;2024-01-10T11:51:48;15.07;;;9.82;;
13975;SDS011;7062;49.792;9.946;2024-01-10T11:54:40;13.02;;;9.57;;
13975;SDS011;7062;49.792;9.946;2024-01-10T11:57:10;17.70;;;10.35;;
13975;SDS011;7062;49.792;9.946;2024-01-10T11:59:38;16.92;;;10.40;;
13975;SDS011;7062;49.792;9.946;2024-01-10T12:02:06;12.30;;;9.27;;
13975;SDS011;7062;49.792;9.946;2024-01-10T12:04:33;16.55;;;11.02;;
13975;SDS011;7062;49.792;9.946;2024-01-10T12:07:00;15.70;;;10.50;;
13975;SDS011;7062;49.792;9.946;2024-01-10T12:09:29;15.25;;;11.85;;
13975;SDS011;7062;49.792;9.946;2024-01-10T12:11:55;17.03;;;10.97;;
13975;SDS011;7062;49.792;9.946;2024-01-10T12:14:21;17.33;;;11.77;;
13975;SDS011;7062;49.792;9.946;2024-01-10T12:16:47;16.97;;;12.00;;
13975;SDS011;7062;49.792;9.946;2024-01-10T12:19:13;14.00;;;10.93;;
13975;SDS011;7062;49.792;9.946;2024-01-10T12:21:38;16.43;;;10.70;;
13975;SDS011;7062;49.792;9.946;2024-01-10T12:24:05;16.57;;;11.67;;
13975;SDS011;7062;49.792;9.946;2024-01-10T12:26:31;14.85;;;10.68;;
13975;SDS011;7062;49.792;9.946;2024-01-10T12:28:58;14.98;;;10.32;;
13975;SDS011;7062;49.792;9.946;2024-01-10T12:31:28;16.23;;;11.25;;
13975;SDS011;7062;49.792;9.946;2024-01-10T12:33:58;13.90;;;11.18;;
13975;SDS011;7062;49.792;9.946;2024-01-10T12:36:24;17.77;;;12.25;;
13975;SDS011;7062;49.792;9.946;2024-01-10T12:38:50;13.40;;;10.67;;
13975;SDS011;7062;49.792;9.946;2024-01-10T12:41:17;15.82;;;11.35;;
13975;SDS011;7062;49.792;9.946;2024-01-10T12:43:43;15.88;;;11.40;;
13975;SDS011;7062;49.792;9.946;2024-01-10T12:46:20;21.83;;;11.48;;
13975;SDS011;7062;49.792;9.946;2024-01-10T12:48:58;14.93;;;10.93;;
13975;SDS011;7062;49.792;9.946;2024-01-10T12:51:28;12.55;;;9.52;;
13975;SDS011;7062;49.792;9.946;2024-01-10T12:53:55;17.63;;;10.60;;
13975;SDS011;7062;49.792;9.946;2024-01-10T12:56:21;17.70;;;11.30;;
13975;SDS011;7062;49.792;9.946;2024-01-10T12:58:47;18.73;;;11.27;;
13975;SDS011;7062;49.792;9.946;2024-01-10T13:01:12;14.90;;;10.63;;
13975;SDS011;7062;49.792;9.946;2024-01-10T13:03:38;14.57;;;10.87;;
13975;SDS011;7062;49.792;9.946;2024-01-10T13:06:04;17.35;;;11.30;;
13975;SDS011;7062;49.792;9.946;2024-01-10T13:08:30;16.70;;;11.77;;
13975;SDS011;7062;49.792;9.946;2024-01-10T13:10:57;16.63;;;11.80;;
13975;SDS011;7062;49.792;9.946;2024-01-10T13:13:24;17.88;;;12.30;;
13975;SDS011;7062;49.792;9.946;2024-01-10T13:15:50;16.67;;;12.30;;
13975;SDS011;7062;49.792;9.946;2024-01-10T13:18:16;17.23;;;11.77;;
13975;SDS011;7062;49.792;9.946;2024-01-10T13:20:43;19.27;;;12.77;;
13975;SDS011;7062;49.792;9.946;2024-01-10T13:23:09;16.15;;;12.55;;
13975;SDS011;7062;49.792;9.946;2024-01-10T13:25:35;17.17;;;11.30;;
13975;SDS011;7062;49.792;9.946;2024-01-10T13:28:02;17.85;;;12.45;;
13975;SDS011;7062;49.792;9.946;2024-01-10T13:30:29;14.88;;;10.95;;
13975;SDS011;7062;49.792;9.946;2024-01-10T13:32:55;18.33;;;12.00;;
13975;SDS011;7062;49.792;9.946;2024-01-10T13:35:22;16.95;;;12.43;;
13975;SDS011;7062;49.792;9.946;2024-01-10T13:37:49;22.35;;;13.45;;
13975;SDS011;7062;49.792;9.946;2024-01-10T13:40:14;19.60;;;13.23;;
13975;SDS011;7062;49.792;9.946;2024-01-10T13:42:41;21.60;;;14.20;;
13975;SDS011;7062;49.792;9.946;2024-01-10T13:45:08;23.05;;;12.90;;
13975;SDS011;7062;49.792;9.946;2024-01-10T13:47:38;17.88;;;12.15;;
13975;SDS011;7062;49.792;9.946;2024-01-10T13:50:05;20.60;;;12.25;;
13975;SDS011;7062;49.792;9.946;2024-01-10T13:52:31;15.43;;;11.60;;
13975;SDS011;7062;49.792;9.946;2024-01-10T13:54:57;19.08;;;12.25;;
13975;SDS011;7062;49.792;9.946;2024-01-10T13:57:24;18.73;;;12.68;;
13975;SDS011;7062;49.792;9.946;2024-01-10T13:59:50;19.00;;;11.83;;
13975;SDS011;7062;49.792;9.946;2024-01-10T14:02:15;18.57;;;13.00;;
13975;SDS011;7062;49.792;9.946;2024-01-10T14:04:43;17.60;;;12.00;;
13975;SDS011;7062;49.792;9.946;2024-01-10T14:07:09;17.92;;;13.18;;
13975;SDS011;7062;49.792;9.946;2024-01-10T14:09:35;16.20;;;12.67;;
13975;SDS011;7062;49.792;9.946;2024-01-10T14:12:01;17.30;;;13.37;;
13975;SDS011;7062;49.792;9.946;2024-01-10T14:14:27;15.90;;;11.67;;
13975;SDS011;7062;49.792;9.946;2024-01-10T14:16:52;22.37;;;13.40;;
13975;SDS011;7062;49.792;9.946;2024-01-10T14:19:18;18.87;;;13.40;;
13975;SDS011;7062;49.792;9.946;2024-01-10T14:21:44;21.00;;;14.20;;
13975;SDS011;7062;49.792;9.946;2024-01-10T14:24:10;23.35;;;14.77;;
13975;SDS011;7062;49.792;9.946;2024-01-10T14:26:36;18.85;;;13.40;;
13975;SDS011;7062;49.792;9.946;2024-01-10T14:29:02;19.20;;;13.40;;
13975;SDS011;7062;49.792;9.946;2024-01-10T14:31:28;18.43;;;13.80;;
13975;SDS011;7062;49.792;9.946;2024-01-10T14:33:54;18.73;;;13.60;;
13975;SDS011;7062;49.792;9.946;2024-01-10T14:36:19;16.93;;;13.60;;
13975;SDS011;7062;49.792;9.946;2024-01-10T14:38:46;23.88;;;14.07;;
13975;SDS011;7062;49.792;9.946;2024-01-10T14:41:12;23.40;;;15.20;;
13975;SDS011;7062;49.792;9.946;2024-01-10T14:43:37;20.10;;;14.23;;
13975;SDS011;7062;49.792;9.946;2024-01-10T14:46:03;19.50;;;14.80;;
13975;SDS011;7062;49.792;9.946;2024-01-10T14:48:32;21.13;;;15.63;;